Time;durP1;ratioP1;P1;durP2;ratioP2;P2;SDS_P1;SDS_P2;PMS_P1;PMS_P2;Temp;Humidity;BMP_temperature;BMP_pressure;BME280_temperature;BME280_humidity;BME280_pressure;Samples;Min_cycle;Max_cycle;Signal;HPM_P1;HPM_P2
2020/12/21 00:01:21;;;;;;;16.65;8.40;;;;;;;2.56;94.71;96248.19;5086161;28;20032;-69
2020/12/21 00:03:48;;;;;;;13.52;7.45;;;;;;;2.43;95.70;96239.06;5087545;28;20050;-69
2020/12/21 00:06:15;;;;;;;14.07;7.90;;;;;;;2.31;95.85;96232.50;5085054;28;20399;-69
2020/12/21 00:08:42;;;;;;;13.10;7.38;;;;;;;2.40;96.55;96239.34;5085603;28;20506;-69
2020/12/21 00:11:09;;;;;;;14.18;8.27;;;;;;;2.39;96.27;96237.72;5084310;28;20043;-69
2020/12/21 00:13:44;;;;;;;15.10;7.43;;;;;;;2.31;96.21;96235.09;5086496;28;20441;-69
2020/12/21 00:16:11;;;;;;;11.55;6.70;;;;;;;2.05;95.39;96214.38;5085599;28;20432;-69
2020/12/21 00:18:38;;;;;;;11.70;6.85;;;;;;;2.29;95.36;96242.94;5084752;28;20055;-68
2020/12/21 00:21:11;;;;;;;11.75;7.30;;;;;;;2.26;95.51;96237.28;5086966;28;20115;-69
2020/12/21 00:23:37;;;;;;;11.95;6.75;;;;;;;2.34;95.38;96234.81;5085359;28;20048;-69
2020/12/21 00:26:07;;;;;;;15.13;7.93;;;;;;;2.34;94.66;96239.94;5080289;28;20520;-69
2020/12/21 00:28:33;;;;;;;12.93;6.63;;;;;;;2.19;94.68;96225.94;5086599;28;20123;-69
2020/12/21 00:31:00;;;;;;;13.82;8.43;;;;;;;2.16;95.12;96231.38;5088005;28;20065;-68
2020/12/21 00:33:33;;;;;;;14.55;8.15;;;;;;;2.28;94.96;96246.44;5088402;28;20402;-69
2020/12/21 00:36:00;;;;;;;16.02;8.68;;;;;;;2.28;94.34;96245.66;5088180;28;20040;-69
2020/12/21 00:38:26;;;;;;;16.17;8.27;;;;;;;2.28;94.48;96245.66;5086404;28;20048;-69
2020/12/21 00:40:53;;;;;;;17.48;8.77;;;;;;;2.20;94.36;96240.44;5086221;28;20040;-69
2020/12/21 00:43:19;;;;;;;17.17;8.38;;;;;;;2.25;94.21;96243.34;5086460;28;20132;-69
2020/12/21 00:45:46;;;;;;;15.88;9.35;;;;;;;2.21;94.09;96247.19;5086966;28;20090;-69
2020/12/21 00:48:12;;;;;;;17.77;9.13;;;;;;;2.28;93.81;96243.09;5086874;28;20036;-69
2020/12/21 00:50:38;;;;;;;18.35;8.77;;;;;;;2.40;93.97;96244.50;5088070;28;20036;-68
2020/12/21 00:53:05;;;;;;;15.80;8.27;;;;;;;2.45;93.91;96237.16;5087961;28;20929;-68
2020/12/21 00:55:35;;;;;;;17.48;8.70;;;;;;;2.61;93.88;96245.97;5068462;28;20052;-69
2020/12/21 00:58:02;;;;;;;17.15;8.30;;;;;;;2.64;93.59;96230.25;5087179;28;20062;-69
2020/12/21 01:00:28;;;;;;;14.63;8.27;;;;;;;2.70;92.58;96250.25;5087717;28;20038;-69
2020/12/21 01:02:54;;;;;;;14.95;8.38;;;;;;;2.55;92.78;96231.16;5088175;28;20119;-69
2020/12/21 01:05:21;;;;;;;14.77;7.85;;;;;;;2.74;93.16;96245.59;5086580;28;20036;-68
2020/12/21 01:07:47;;;;;;;13.23;7.63;;;;;;;2.86;93.08;96244.44;5086753;28;20063;-69
2020/12/21 01:10:13;;;;;;;13.23;6.78;;;;;;;2.98;92.36;96237.31;5086901;28;20114;-69
2020/12/21 01:12:40;;;;;;;15.52;8.30;;;;;;;2.98;91.70;96245.03;5086229;28;20447;-69
2020/12/21 01:15:07;;;;;;;12.65;7.60;;;;;;;2.86;91.86;96237.53;5085454;28;20049;-69
2020/12/21 01:17:33;;;;;;;12.63;7.40;;;;;;;2.59;92.71;96224.75;5069033;28;20050;-69
2020/12/21 01:19:59;;;;;;;13.02;7.13;;;;;;;2.67;92.55;96245.41;5073902;28;20531;-68
2020/12/21 01:22:26;;;;;;;10.52;6.60;;;;;;;2.64;92.82;96236.19;5086334;28;20044;-68
2020/12/21 01:24:52;;;;;;;12.20;7.10;;;;;;;2.58;93.21;96221.38;5086540;28;20048;-68
2020/12/21 01:27:18;;;;;;;11.68;6.57;;;;;;;2.87;92.85;96240.91;5086276;28;20042;-69
2020/12/21 01:29:45;;;;;;;11.02;6.90;;;;;;;3.08;92.44;96243.19;5087548;28;20440;-69
2020/12/21 01:32:12;;;;;;;12.27;7.07;;;;;;;3.16;91.26;96225.22;5086391;28;20046;-68
2020/12/21 01:34:38;;;;;;;10.13;6.30;;;;;;;3.28;90.80;96238.66;5087294;28;20039;-69
2020/12/21 01:37:04;;;;;;;12.18;7.60;;;;;;;3.30;90.21;96230.78;5086251;28;20036;-69
2020/12/21 01:39:31;;;;;;;12.15;6.97;;;;;;;3.39;89.47;96222.16;5086516;28;20048;-69
2020/12/21 01:41:57;;;;;;;11.57;6.30;;;;;;;3.52;88.81;96234.63;5086030;28;20033;-69
2020/12/21 01:44:24;;;;;;;12.10;6.53;;;;;;;3.38;88.50;96235.97;5085706;28;20497;-69
2020/12/21 01:46:51;;;;;;;10.13;6.10;;;;;;;3.28;89.02;96228.38;5085890;28;20040;-69
2020/12/21 01:49:17;;;;;;;13.57;6.68;;;;;;;3.36;88.63;96219.88;5087023;28;20036;-70
2020/12/21 01:51:43;;;;;;;13.60;6.97;;;;;;;3.08;88.99;96226.91;5089970;28;20060;-69
2020/12/21 01:54:10;;;;;;;13.80;7.13;;;;;;;3.25;89.33;96233.81;5073325;28;20047;-69
2020/12/21 01:56:36;;;;;;;12.95;7.20;;;;;;;3.08;89.17;96230.31;5091369;28;20063;-69
2020/12/21 01:59:03;;;;;;;11.38;6.80;;;;;;;2.90;90.33;96229.50;5089739;28;20036;-69
2020/12/21 02:01:32;;;;;;;19.42;8.88;;;;;;;2.89;91.01;96238.19;5091112;28;20036;-68
2020/12/21 02:03:59;;;;;;;13.50;6.65;;;;;;;3.02;90.91;96223.97;5089998;28;20578;-68
2020/12/21 02:06:26;;;;;;;14.43;6.57;;;;;;;3.18;90.47;96233.59;5091232;28;20443;-69
2020/12/21 02:08:52;;;;;;;10.85;6.75;;;;;;;3.32;90.19;96234.81;5089963;28;20067;-69
2020/12/21 02:11:19;;;;;;;13.00;7.55;;;;;;;3.21;89.66;96228.16;5091267;28;20036;-69
2020/12/21 02:13:45;;;;;;;12.30;6.00;;;;;;;3.17;89.92;96226.84;5091092;28;20486;-69
2020/12/21 02:16:15;;;;;;;13.35;7.82;;;;;;;3.35;89.71;96218.25;5089276;28;20146;-68
2020/12/21 02:18:42;;;;;;;14.98;6.78;;;;;;;3.38;89.13;96207.66;5090733;28;20535;-68
2020/12/21 02:21:09;;;;;;;12.38;6.53;;;;;;;3.56;88.31;96221.28;5089650;28;20031;-69
2020/12/21 02:23:35;;;;;;;10.48;6.72;;;;;;;3.17;89.10;96221.69;5090817;28;20043;-68
2020/12/21 02:26:01;;;;;;;14.68;7.35;;;;;;;3.16;89.91;96217.50;5088164;28;20044;-68
2020/12/21 02:28:28;;;;;;;14.95;7.65;;;;;;;3.17;89.81;96215.72;5088883;28;20049;-69
2020/12/21 02:30:54;;;;;;;13.50;8.40;;;;;;;3.24;89.67;96217.56;5088655;28;20097;-69
2020/12/21 02:33:21;;;;;;;14.68;8.38;;;;;;;3.33;89.17;96212.44;5090257;28;20076;-69
2020/12/21 02:35:47;;;;;;;15.65;7.70;;;;;;;3.19;89.71;96224.91;5089256;28;20047;-69
2020/12/21 02:38:14;;;;;;;15.32;9.10;;;;;;;2.84;90.15;96215.47;5088930;28;20111;-69
2020/12/21 02:40:41;;;;;;;15.75;9.05;;;;;;;2.86;91.24;96214.38;5089014;28;20040;-69
2020/12/21 02:43:22;;;;;;;14.38;8.82;;;;;;;2.72;91.61;96217.47;5088151;28;20051;-70
2020/12/21 02:45:49;;;;;;;15.57;9.15;;;;;;;2.72;92.07;96216.66;5090418;28;20048;-69
2020/12/21 02:48:15;;;;;;;17.65;9.75;;;;;;;2.59;92.38;96217.03;5088920;28;20573;-69
2020/12/21 02:50:42;;;;;;;20.67;10.45;;;;;;;2.53;92.87;96223.56;5089716;28;20060;-69
2020/12/21 02:53:10;;;;;;;16.80;9.60;;;;;;;2.37;93.17;96213.13;5088666;28;20125;-68
2020/12/21 02:55:37;;;;;;;19.80;10.50;;;;;;;2.40;93.44;96218.00;5088339;28;20081;-69
2020/12/21 02:58:04;;;;;;;20.23;10.80;;;;;;;2.36;93.53;96216.63;5087097;28;20048;-69
2020/12/21 03:00:33;;;;;;;18.80;9.55;;;;;;;2.47;93.14;96219.81;5087115;28;20063;-69
2020/12/21 03:03:04;;;;;;;21.60;11.95;;;;;;;2.51;93.09;96227.25;5087337;28;20079;-69
2020/12/21 03:05:31;;;;;;;19.63;11.30;;;;;;;2.30;93.34;96218.03;5087232;28;20046;-69
2020/12/21 03:07:58;;;;;;;22.67;12.10;;;;;;;2.40;93.78;96218.00;5087549;28;20036;-69
2020/12/21 03:10:24;;;;;;;24.83;12.45;;;;;;;2.40;93.89;96212.84;5088091;28;20040;-69
2020/12/21 03:12:51;;;;;;;22.17;11.68;;;;;;;2.45;94.16;96216.59;5088393;28;20110;-69
2020/12/21 03:15:17;;;;;;;22.27;10.98;;;;;;;2.42;93.99;96196.31;5087525;28;20105;-69
2020/12/21 03:17:43;;;;;;;18.17;10.35;;;;;;;2.40;94.41;96203.34;5088069;28;20050;-68
2020/12/21 03:20:10;;;;;;;18.88;9.57;;;;;;;2.42;94.21;96206.59;5086517;28;20032;-69
2020/12/21 03:22:36;;;;;;;19.90;9.23;;;;;;;2.75;94.05;96217.16;5085721;28;20046;-69
2020/12/21 03:25:05;;;;;;;18.17;9.10;;;;;;;2.83;93.10;96224.97;5088038;28;20032;-69
2020/12/21 03:27:31;;;;;;;15.45;9.55;;;;;;;2.99;92.88;96228.63;5086860;28;20405;-69
2020/12/21 03:29:58;;;;;;;16.40;8.85;;;;;;;3.11;91.70;96222.28;5088101;28;20444;-68
2020/12/21 03:32:24;;;;;;;14.32;8.77;;;;;;;3.14;91.55;96227.13;5088024;28;20444;-67
2020/12/21 03:34:52;;;;;;;14.75;7.88;;;;;;;3.28;91.19;96230.94;5088256;28;20036;-67
2020/12/21 03:37:18;;;;;;;16.30;9.18;;;;;;;3.31;90.66;96235.75;5088131;28;20111;-67
2020/12/21 03:39:45;;;;;;;16.85;8.57;;;;;;;3.44;90.27;96227.66;5087956;28;20557;-67
2020/12/21 03:42:11;;;;;;;15.85;8.55;;;;;;;3.49;89.88;96230.56;5086627;28;20055;-67
2020/12/21 03:44:37;;;;;;;18.33;8.25;;;;;;;3.57;89.61;96217.75;5086586;28;20497;-67
2020/12/21 03:47:04;;;;;;;14.98;8.32;;;;;;;3.34;89.19;96211.50;5086384;28;20040;-67
2020/12/21 03:49:30;;;;;;;14.77;8.55;;;;;;;3.02;90.28;96202.59;5087081;28;20044;-67
2020/12/21 03:51:57;;;;;;;16.33;9.02;;;;;;;2.75;92.28;96212.03;5086118;28;20040;-67
2020/12/21 03:54:24;;;;;;;15.30;8.82;;;;;;;2.46;93.15;96197.63;5086083;28;20055;-68
2020/12/21 03:56:50;;;;;;;19.17;10.05;;;;;;;2.55;93.56;96216.50;5062724;28;698825;-68
2020/12/21 03:59:17;;;;;;;21.05;11.43;;;;;;;2.77;93.52;96215.25;5086363;28;20048;-68
2020/12/21 04:01:43;;;;;;;20.65;10.65;;;;;;;2.62;93.29;96211.59;5085937;28;20058;-68
2020/12/21 04:04:10;;;;;;;20.30;10.38;;;;;;;2.75;93.11;96227.47;5088580;28;20078;-67
2020/12/21 04:06:37;;;;;;;19.58;9.82;;;;;;;2.92;92.92;96219.88;5068945;28;20044;-68
2020/12/21 04:09:04;;;;;;;21.30;10.45;;;;;;;2.94;92.35;96205.13;5088435;28;20039;-68
2020/12/21 04:11:31;;;;;;;18.85;9.93;;;;;;;3.00;92.12;96220.75;5088576;28;20036;-68
2020/12/21 04:13:57;;;;;;;21.70;10.75;;;;;;;2.96;91.91;96222.00;5086180;28;20127;-68
2020/12/21 04:16:23;;;;;;;18.75;10.55;;;;;;;2.92;92.01;96217.28;5086981;28;20109;-68
2020/12/21 04:18:50;;;;;;;21.10;11.88;;;;;;;2.63;92.55;96197.78;5088553;28;20512;-68
2020/12/21 04:21:16;;;;;;;23.15;13.02;;;;;;;2.63;92.99;96213.22;5086825;28;20044;-68
2020/12/21 04:23:43;;;;;;;18.73;10.98;;;;;;;2.52;93.03;96195.41;5070488;28;20036;-67
2020/12/21 04:26:09;;;;;;;26.27;15.65;;;;;;;2.74;92.70;96215.56;5087060;28;20456;-68
2020/12/21 04:28:36;;;;;;;20.35;10.48;;;;;;;2.64;92.87;96209.69;5086415;28;20055;-68
2020/12/21 04:31:04;;;;;;;22.17;10.02;;;;;;;2.67;92.42;96214.53;5086811;28;20032;-69
2020/12/21 04:33:30;;;;;;;17.38;9.95;;;;;;;2.63;92.30;96208.09;5069884;28;20479;-68
2020/12/21 04:36:11;;;;;;;23.67;12.02;;;;;;;2.55;92.80;96205.41;5087611;28;20051;-68
2020/12/21 04:38:42;;;;;;;20.65;11.32;;;;;;;2.61;92.85;96213.38;5086022;28;20039;-69
2020/12/21 04:41:10;;;;;;;22.27;11.02;;;;;;;2.74;92.29;96210.41;5086044;28;20036;-69
2020/12/21 04:43:37;;;;;;;19.02;9.32;;;;;;;2.53;92.35;96176.47;5085946;28;20061;-69
2020/12/21 04:46:07;;;;;;;18.80;9.60;;;;;;;2.62;92.26;96206.44;5087569;28;20418;-69
2020/12/21 04:48:43;;;;;;;16.83;9.93;;;;;;;2.56;92.25;96194.19;5087677;28;20042;-69
2020/12/21 04:51:10;;;;;;;22.08;11.35;;;;;;;2.63;92.41;96211.44;5086779;28;20043;-68
2020/12/21 04:53:38;;;;;;;15.63;8.52;;;;;;;2.52;93.05;96205.72;5086085;28;20048;-68
2020/12/21 04:56:05;;;;;;;19.60;9.55;;;;;;;2.44;93.25;96194.38;5087328;28;20052;-68
2020/12/21 04:58:32;;;;;;;18.83;9.20;;;;;;;2.57;93.24;96212.03;5086464;28;20061;-68
2020/12/21 05:00:58;;;;;;;17.83;10.25;;;;;;;2.71;92.82;96200.41;5087072;28;20429;-68
2020/12/21 05:03:24;;;;;;;19.35;9.52;;;;;;;2.74;91.92;96205.28;5084735;28;20048;-68
2020/12/21 05:05:51;;;;;;;22.63;10.70;;;;;;;2.66;91.87;96212.91;5086178;28;20106;-68
2020/12/21 05:08:20;;;;;;;23.52;11.50;;;;;;;2.60;92.08;96209.16;5087493;28;20448;-68
2020/12/21 05:10:57;;;;;;;20.98;10.93;;;;;;;2.58;92.29;96215.44;5087570;28;20123;-68
2020/12/21 05:13:23;;;;;;;21.90;12.27;;;;;;;2.63;92.49;96223.50;5087096;28;20044;-68
2020/12/21 05:15:51;;;;;;;34.95;15.55;;;;;;;2.63;92.38;96223.50;5087242;28;20047;-69
2020/12/21 05:18:34;;;;;;;27.90;13.35;;;;;;;2.78;92.32;96219.44;5071651;28;20050;-69
2020/12/21 05:21:02;;;;;;;22.92;11.02;;;;;;;2.93;91.40;96218.94;5086230;28;20040;-67
2020/12/21 05:23:30;;;;;;;23.13;11.63;;;;;;;2.81;91.22;96196.00;5085935;28;20513;-68
2020/12/21 05:25:59;;;;;;;25.00;11.77;;;;;;;3.10;91.29;96220.69;5084849;28;20086;-69
2020/12/21 05:28:33;;;;;;;27.00;11.38;;;;;;;3.03;90.97;96220.47;5085803;28;20032;-69
2020/12/21 05:31:03;;;;;;;22.95;11.05;;;;;;;2.91;91.15;96220.84;5086056;28;20052;-70
2020/12/21 05:33:30;;;;;;;24.58;11.70;;;;;;;3.11;90.59;96227.44;5069077;28;20047;-69
2020/12/21 05:36:05;;;;;;;21.67;11.05;;;;;;;3.10;90.26;96225.81;5086422;28;20557;-69
2020/12/21 05:38:31;;;;;;;23.92;11.30;;;;;;;2.93;90.89;96229.22;5085494;28;20413;-68
2020/12/21 05:41:11;;;;;;;20.83;10.52;;;;;;;2.69;91.80;96230.63;5085573;28;20044;-69
2020/12/21 05:43:40;;;;;;;22.70;11.65;;;;;;;2.48;92.83;96216.31;5085757;28;20574;-68
2020/12/21 05:46:09;;;;;;;23.08;12.25;;;;;;;2.58;93.23;96230.84;5086725;28;20036;-68
2020/12/21 05:48:41;;;;;;;20.88;11.35;;;;;;;2.57;93.46;96227.44;5085873;28;20032;-67
2020/12/21 05:51:09;;;;;;;25.05;11.10;;;;;;;2.40;93.67;96213.63;5086037;28;20421;-69
2020/12/21 05:53:43;;;;;;;25.45;11.75;;;;;;;2.48;93.74;96225.75;5086886;28;20047;-68
2020/12/21 05:56:10;;;;;;;24.95;12.50;;;;;;;2.45;94.17;96224.31;5086621;28;20059;-68
2020/12/21 05:58:39;;;;;;;22.17;11.50;;;;;;;2.52;94.05;96234.00;5086940;28;20036;-69
2020/12/21 06:01:10;;;;;;;19.00;10.57;;;;;;;2.55;93.98;96231.16;5087034;28;20040;-68
2020/12/21 06:03:48;;;;;;;24.33;11.38;;;;;;;2.62;93.47;96227.81;5086906;28;20094;-69
2020/12/21 06:06:23;;;;;;;27.60;12.80;;;;;;;2.76;93.35;96234.22;5086392;28;20520;-68
2020/12/21 06:08:52;;;;;;;26.77;12.85;;;;;;;2.69;93.59;96235.78;5086765;28;20496;-67
2020/12/21 06:11:27;;;;;;;25.52;12.02;;;;;;;2.55;94.25;96224.22;5087033;28;20081;-68
2020/12/21 06:14:09;;;;;;;27.30;12.45;;;;;;;2.59;94.42;96232.47;5086168;28;20032;-69
2020/12/21 06:16:36;;;;;;;24.95;12.90;;;;;;;2.46;94.64;96233.63;5085675;28;20038;-68
2020/12/21 06:19:09;;;;;;;27.30;14.23;;;;;;;2.41;94.58;96225.56;5086784;28;20490;-69
2020/12/21 06:21:40;;;;;;;31.30;14.77;;;;;;;2.35;95.05;96231.25;5084457;28;20115;-67
2020/12/21 06:24:17;;;;;;;27.20;13.65;;;;;;;2.33;95.39;96238.31;5085351;28;20140;-67
2020/12/21 06:26:44;;;;;;;28.02;13.95;;;;;;;2.27;95.58;96228.63;5086087;28;20501;-67
2020/12/21 06:29:25;;;;;;;27.77;14.40;;;;;;;2.32;95.35;96228.97;5087012;28;20044;-67
2020/12/21 06:31:57;;;;;;;29.08;15.20;;;;;;;2.28;96.29;96240.50;5085205;28;20111;-67
2020/12/21 06:34:29;;;;;;;33.47;15.25;;;;;;;2.26;95.99;96237.28;5085535;28;20032;-68
2020/12/21 06:37:08;;;;;;;30.77;14.25;;;;;;;2.25;95.91;96233.91;5088410;28;20484;-67
2020/12/21 06:39:36;;;;;;;33.17;14.40;;;;;;;2.30;96.29;96233.47;5089679;28;20123;-68
2020/12/21 06:42:07;;;;;;;33.70;15.02;;;;;;;2.30;96.40;96238.59;5088850;28;20043;-68
2020/12/21 06:44:37;;;;;;;29.13;14.35;;;;;;;2.28;96.56;96240.50;5087301;28;20048;-68
2020/12/21 06:47:04;;;;;;;28.00;14.13;;;;;;;2.29;95.92;96235.22;5088811;28;20044;-67
2020/12/21 06:49:30;;;;;;;26.08;12.80;;;;;;;2.35;96.26;96236.41;5088674;28;20308;-67
2020/12/21 06:51:56;;;;;;;29.63;13.85;;;;;;;2.41;96.60;96225.56;5090338;28;20041;-67
2020/12/21 06:54:23;;;;;;;27.20;12.45;;;;;;;2.42;95.82;96237.44;5088707;28;20528;-69
2020/12/21 06:56:50;;;;;;;29.05;13.68;;;;;;;2.52;96.01;96237.41;5090010;28;20048;-67
2020/12/21 06:59:19;;;;;;;28.08;12.65;;;;;;;2.56;95.21;96235.34;5087789;28;20048;-68
2020/12/21 07:01:48;;;;;;;28.48;12.00;;;;;;;2.55;95.66;96236.28;5087565;28;20051;-68
2020/12/21 07:04:15;;;;;;;29.95;14.63;;;;;;;2.57;95.27;96239.50;5071297;28;20044;-68
2020/12/21 07:06:43;;;;;;;28.02;13.68;;;;;;;2.57;95.42;96242.09;5088783;28;20064;-67
2020/12/21 07:09:11;;;;;;;29.38;14.07;;;;;;;2.57;95.35;96229.22;5088423;28;20032;-68
2020/12/21 07:11:39;;;;;;;27.35;15.13;;;;;;;2.67;94.80;96255.69;5088644;28;20518;-68
2020/12/21 07:14:06;;;;;;;29.63;17.13;;;;;;;2.67;94.72;96235.91;5088452;28;20588;-67
2020/12/21 07:16:33;;;;;;;24.35;13.02;;;;;;;2.67;94.68;96235.13;5087158;28;20497;-67
2020/12/21 07:18:59;;;;;;;24.08;12.38;;;;;;;2.67;94.18;96251.34;5089004;28;20489;-67
2020/12/21 07:21:26;;;;;;;20.92;11.73;;;;;;;2.63;94.57;96246.66;5089282;28;20478;-68
2020/12/21 07:23:57;;;;;;;21.88;11.25;;;;;;;2.66;94.61;96248.94;5088316;28;20047;-67
2020/12/21 07:26:25;;;;;;;29.42;14.57;;;;;;;2.68;95.20;96247.00;5088884;28;20528;-67
2020/12/21 07:28:53;;;;;;;40.72;25.48;;;;;;;2.62;94.98;96252.75;5088896;28;20489;-68
2020/12/21 07:31:21;;;;;;;37.55;15.68;;;;;;;2.71;94.91;96251.88;5088380;28;20032;-69
2020/12/21 07:33:51;;;;;;;27.95;13.32;;;;;;;2.74;94.06;96261.88;5089466;28;20472;-69
2020/12/21 07:36:19;;;;;;;27.02;12.02;;;;;;;2.09;93.86;96156.63;5088322;28;20043;-69
2020/12/21 07:38:45;;;;;;;27.13;12.27;;;;;;;2.62;93.36;96242.47;5089612;28;20063;-69
2020/12/21 07:41:13;;;;;;;27.63;13.40;;;;;;;2.73;94.43;96255.09;5089144;28;20119;-69
2020/12/21 07:44:06;;;;;;;38.53;23.70;;;;;;;2.78;93.98;96252.91;5087565;28;20532;-70
2020/12/21 07:46:56;;;;;;;16.40;8.93;;;;;;;2.72;92.76;96252.66;5087594;28;20040;-69
2020/12/21 07:49:23;;;;;;;20.80;9.65;;;;;;;2.76;93.03;96252.25;5088067;28;20055;-69
2020/12/21 07:51:50;;;;;;;14.95;7.53;;;;;;;2.83;92.70;96249.91;5087221;28;20049;-69
2020/12/21 07:54:17;;;;;;;13.65;7.65;;;;;;;2.87;93.15;96241.72;5088040;28;20044;-69
2020/12/21 07:56:43;;;;;;;15.07;8.10;;;;;;;2.83;92.01;96227.53;5088443;28;20048;-69
2020/12/21 07:59:18;;;;;;;22.92;12.95;;;;;;;2.87;92.01;96241.72;5087474;28;20040;-70
2020/12/21 08:01:46;;;;;;;14.50;8.55;;;;;;;3.00;91.75;96245.69;5087607;28;20028;-69
2020/12/21 08:04:17;;;;;;;18.05;9.35;;;;;;;2.93;90.38;96249.81;5088372;28;20036;-69
2020/12/21 08:06:45;;;;;;;13.07;8.27;;;;;;;3.04;90.38;96247.00;5087400;28;20039;-69
2020/12/21 08:09:12;;;;;;;19.65;12.00;;;;;;;3.12;90.47;96247.06;5087951;28;20131;-69
2020/12/21 08:11:38;;;;;;;15.15;8.60;;;;;;;3.00;90.47;96245.69;5085522;28;20036;-69
2020/12/21 08:14:14;;;;;;;18.33;8.90;;;;;;;3.12;91.41;96249.66;5088533;28;20055;-69
2020/12/21 08:16:42;;;;;;;14.38;8.57;;;;;;;3.12;91.10;96244.50;5086603;28;20048;-70
2020/12/21 08:19:13;;;;;;;16.13;8.43;;;;;;;3.27;91.36;96231.09;5070428;28;20521;-70
2020/12/21 08:21:41;;;;;;;13.57;8.57;;;;;;;3.12;90.20;96228.25;5088335;28;20040;-69
2020/12/21 08:24:10;;;;;;;13.43;9.98;;;;;;;3.19;89.59;96250.66;5087430;28;20120;-69
2020/12/21 08:26:36;;;;;;;13.98;6.18;;;;;;;3.29;88.48;96254.91;5088619;28;20044;-69
2020/12/21 08:29:04;;;;;;;6.28;3.53;;;;;;;3.33;88.01;96258.81;5088294;28;20039;-69
2020/12/21 08:31:31;;;;;;;5.85;3.20;;;;;;;3.43;88.19;96255.16;5087965;28;20034;-69
2020/12/21 08:34:04;;;;;;;5.75;3.67;;;;;;;3.66;87.10;96256.44;5087011;28;20044;-69
2020/12/21 08:36:33;;;;;;;6.85;3.25;;;;;;;3.57;85.89;96266.69;5086985;28;20048;-69
2020/12/21 08:39:12;;;;;;;11.32;4.65;;;;;;;3.68;86.51;96259.69;5088121;28;20119;-69
2020/12/21 08:41:53;;;;;;;9.82;5.43;;;;;;;3.59;87.57;96246.75;5086813;28;20144;-69
2020/12/21 08:44:25;;;;;;;8.05;4.70;;;;;;;3.54;87.40;96251.53;5086095;28;20044;-69
2020/12/21 08:46:53;;;;;;;7.18;4.43;;;;;;;3.45;87.73;96239.56;5088093;28;20048;-69
2020/12/21 08:49:20;;;;;;;11.02;5.38;;;;;;;3.50;88.19;96221.09;5087138;28;20047;-69
2020/12/21 08:51:48;;;;;;;11.23;6.13;;;;;;;3.67;87.93;96238.25;5087746;28;20066;-69
2020/12/21 08:54:15;;;;;;;12.73;6.88;;;;;;;3.59;87.42;96241.59;5087483;28;20032;-69
2020/12/21 08:56:46;;;;;;;13.18;6.72;;;;;;;3.54;87.78;96237.84;5086518;28;20055;-69
2020/12/21 08:59:12;;;;;;;12.73;7.30;;;;;;;3.63;89.16;96227.44;5086503;28;20043;-69
2020/12/21 09:01:40;;;;;;;12.30;8.85;;;;;;;3.62;88.21;96217.31;5085550;28;20036;-69
2020/12/21 09:04:07;;;;;;;14.38;8.40;;;;;;;3.80;87.84;96219.81;5087414;28;20036;-69
2020/12/21 09:06:33;;;;;;;15.85;9.98;;;;;;;3.66;87.53;96220.38;5087850;28;20046;-69
2020/12/21 09:08:59;;;;;;;21.55;10.10;;;;;;;3.60;86.46;96217.44;5085861;28;20040;-66
2020/12/21 09:11:26;;;;;;;17.70;11.35;;;;;;;3.68;87.98;96218.44;5086409;28;20039;-66
2020/12/21 09:13:53;;;;;;;17.17;7.80;;;;;;;3.77;86.86;96207.22;5087200;28;20394;-67
2020/12/21 09:16:23;;;;;;;19.60;11.65;;;;;;;3.80;87.07;96212.88;5086425;28;20048;-67
2020/12/21 09:18:50;;;;;;;18.60;11.07;;;;;;;3.84;86.65;96218.53;5086480;28;20074;-66
2020/12/21 09:21:30;;;;;;;16.77;8.73;;;;;;;3.90;87.20;96212.75;5086844;28;20050;-66
2020/12/21 09:23:57;;;;;;;13.73;7.13;;;;;;;4.03;86.48;96217.47;5087103;28;20114;-67
2020/12/21 09:26:26;;;;;;;23.30;12.02;;;;;;;3.93;84.98;96212.44;5087811;28;20048;-68
2020/12/21 09:28:54;;;;;;;17.65;11.13;;;;;;;3.79;84.64;96205.28;5087676;28;20040;-68
2020/12/21 09:31:22;;;;;;;29.52;17.27;;;;;;;3.74;85.16;96197.22;5067050;28;20036;-68
2020/12/21 09:33:49;;;;;;;17.95;11.50;;;;;;;3.92;85.30;96205.66;5084754;28;20036;-67
2020/12/21 09:36:17;;;;;;;13.55;6.22;;;;;;;3.99;84.40;96205.84;5086121;28;20047;-67
2020/12/21 09:38:44;;;;;;;13.27;7.43;;;;;;;3.92;84.07;96199.69;5085919;28;20040;-67
2020/12/21 09:41:16;;;;;;;20.98;7.32;;;;;;;4.02;84.89;96206.34;5086011;28;20509;-66
2020/12/21 09:43:44;;;;;;;17.95;9.90;;;;;;;3.82;85.23;96189.53;5069179;28;20067;-67
2020/12/21 09:46:16;;;;;;;16.60;8.82;;;;;;;4.06;85.53;96195.72;5084790;28;20050;-67
2020/12/21 09:48:42;;;;;;;11.68;7.28;;;;;;;4.15;84.48;96194.78;5084090;28;20509;-67
2020/12/21 09:51:11;;;;;;;11.98;6.68;;;;;;;4.13;83.66;96196.72;5086603;28;20036;-68
2020/12/21 09:53:39;;;;;;;12.25;7.32;;;;;;;4.38;83.38;96193.22;5086463;28;20043;-67
2020/12/21 09:56:09;;;;;;;14.88;6.97;;;;;;;4.39;81.09;96187.13;5085150;28;20055;-67
2020/12/21 09:58:35;;;;;;;11.88;7.13;;;;;;;4.50;81.59;96185.19;5087331;28;20035;-67
2020/12/21 10:01:02;;;;;;;13.35;8.52;;;;;;;4.33;80.26;96182.56;5086332;28;20132;-66
2020/12/21 10:03:29;;;;;;;10.13;6.38;;;;;;;4.22;80.67;96190.63;5084366;28;20052;-67
2020/12/21 10:05:55;;;;;;;15.32;8.57;;;;;;;4.21;81.68;96189.81;5085547;28;20505;-67
2020/12/21 10:08:21;;;;;;;12.27;6.50;;;;;;;4.50;81.94;96182.59;5085805;28;20040;-66
2020/12/21 10:10:48;;;;;;;11.95;6.78;;;;;;;4.63;80.16;96182.94;5085976;28;20047;-67
2020/12/21 10:13:15;;;;;;;10.23;5.97;;;;;;;4.50;78.83;96187.75;5089242;28;20437;-67
2020/12/21 10:15:41;;;;;;;10.77;5.20;;;;;;;4.64;79.40;96169.06;5089177;28;20058;-67
2020/12/21 10:18:08;;;;;;;10.57;6.05;;;;;;;4.86;79.07;96190.03;5090422;28;20118;-67
2020/12/21 10:20:34;;;;;;;14.43;8.73;;;;;;;4.82;78.21;96173.28;5089676;28;20032;-66
2020/12/21 10:23:01;;;;;;;12.52;7.15;;;;;;;4.47;80.13;96170.03;5089450;28;20064;-67
2020/12/21 10:25:28;;;;;;;8.20;4.78;;;;;;;4.57;80.17;96162.94;5089346;28;20058;-66
2020/12/21 10:27:55;;;;;;;18.17;12.55;;;;;;;4.87;80.99;96158.09;5090405;28;20501;-67
2020/12/21 10:30:21;;;;;;;10.30;6.90;;;;;;;5.11;77.80;96160.66;5090591;28;20044;-67
2020/12/21 10:32:47;;;;;;;11.88;6.35;;;;;;;4.88;76.83;96175.19;5090210;28;20039;-67
2020/12/21 10:35:13;;;;;;;10.13;5.35;;;;;;;4.77;77.63;96171.97;5089013;28;20408;-67
2020/12/21 10:37:41;;;;;;;7.88;4.82;;;;;;;5.02;76.03;96166.78;5088887;28;20074;-68
2020/12/21 10:40:07;;;;;;;8.45;5.32;;;;;;;5.02;76.00;96160.84;5089429;28;20044;-68
2020/12/21 10:42:33;;;;;;;12.43;6.00;;;;;;;4.93;76.31;96162.59;5090380;28;20028;-68
2020/12/21 10:45:00;;;;;;;9.70;5.55;;;;;;;4.62;77.91;96119.38;5088719;28;20044;-68
2020/12/21 10:47:26;;;;;;;10.45;5.63;;;;;;;5.06;77.25;96152.59;5089407;28;20043;-68
2020/12/21 10:49:53;;;;;;;10.60;5.82;;;;;;;5.24;80.32;96154.16;5090023;28;20040;-68
2020/12/21 10:52:19;;;;;;;12.13;5.57;;;;;;;5.15;74.84;96146.44;5089150;28;20036;-68
2020/12/21 10:54:45;;;;;;;9.77;5.20;;;;;;;5.03;75.70;96146.97;5090175;28;20040;-68
2020/12/21 10:57:12;;;;;;;9.27;5.55;;;;;;;5.15;76.35;96141.28;5088485;28;21899;-68
2020/12/21 10:59:39;;;;;;;10.32;6.05;;;;;;;4.88;74.16;96123.56;5088962;28;20071;-68
2020/12/21 11:02:05;;;;;;;11.73;7.03;;;;;;;4.99;75.86;96151.66;5087053;28;20405;-67
2020/12/21 11:04:31;;;;;;;11.20;6.15;;;;;;;5.06;76.36;96142.28;5089699;28;20093;-68
2020/12/21 11:06:58;;;;;;;11.43;6.13;;;;;;;4.90;75.12;96143.09;5087837;28;20051;-67
2020/12/21 11:09:24;;;;;;;13.40;7.03;;;;;;;4.81;76.62;96135.50;5088597;28;20040;-67
2020/12/21 11:11:50;;;;;;;16.95;8.52;;;;;;;4.62;76.96;96140.03;5088223;28;20043;-68
2020/12/21 11:14:17;;;;;;;16.23;8.85;;;;;;;4.66;76.37;96136.16;5086940;28;20042;-67
2020/12/21 11:16:54;;;;;;;14.23;8.40;;;;;;;4.91;74.88;96134.38;5086963;28;20421;-67
2020/12/21 11:19:21;;;;;;;15.88;8.52;;;;;;;4.96;74.38;96126.16;5087825;28;20429;-67
2020/12/21 11:21:47;;;;;;;39.50;12.77;;;;;;;5.15;74.10;96141.28;5085413;28;20453;-67
2020/12/21 11:24:14;;;;;;;31.98;11.70;;;;;;;5.15;73.49;96125.78;5088968;28;20036;-67
2020/12/21 11:26:41;;;;;;;26.67;12.70;;;;;;;5.15;73.70;96136.13;5089448;28;20044;-67
2020/12/21 11:29:07;;;;;;;16.08;8.93;;;;;;;5.10;73.59;96138.38;5089388;28;20043;-67
2020/12/21 11:31:36;;;;;;;19.33;11.30;;;;;;;4.93;75.03;96132.44;5067009;28;20076;-67
2020/12/21 11:34:05;;;;;;;21.73;11.90;;;;;;;4.99;75.07;96146.47;5087040;28;20044;-67
2020/12/21 11:36:32;;;;;;;56.92;22.95;;;;;;;5.00;74.84;96148.06;5087263;28;20131;-67